sensor_id;sensor_type;location;lat;lon;timestamp;P1;durP1;ratioP1;P2;durP2;ratioP2
78916;SDS011;68315;48.608;11.436;2023-06-26T00:00:42;5.75;;;4.95;;
78916;SDS011;68315;48.608;11.436;2023-06-26T00:03:08;6.30;;;5.57;;
78916;SDS011;68315;48.608;11.436;2023-06-26T00:05:33;6.70;;;5.30;;
78916;SDS011;68315;48.608;11.436;2023-06-26T00:07:59;5.75;;;5.07;;
78916;SDS011;68315;48.608;11.436;2023-06-26T00:10:25;5.40;;;4.80;;
78916;SDS011;68315;48.608;11.436;2023-06-26T00:12:53;5.38;;;4.40;;
78916;SDS011;68315;48.608;11.436;2023-06-26T00:15:19;6.72;;;4.60;;
78916;SDS011;68315;48.608;11.436;2023-06-26T00:17:45;6.00;;;4.03;;
78916;SDS011;68315;48.608;11.436;2023-06-26T00:20:10;5.90;;;5.30;;
78916;SDS011;68315;48.608;11.436;2023-06-26T00:22:36;6.60;;;5.10;;
78916;SDS011;68315;48.608;11.436;2023-06-26T00:25:01;5.20;;;4.70;;
78916;SDS011;68315;48.608;11.436;2023-06-26T00:27:27;6.68;;;5.85;;
78916;SDS011;68315;48.608;11.436;2023-06-26T00:29:52;6.93;;;6.03;;
78916;SDS011;68315;48.608;11.436;2023-06-26T00:32:18;6.45;;;5.72;;
78916;SDS011;68315;48.608;11.436;2023-06-26T00:34:43;6.90;;;5.80;;
78916;SDS011;68315;48.608;11.436;2023-06-26T00:37:08;5.70;;;5.20;;
78916;SDS011;68315;48.608;11.436;2023-06-26T00:39:34;6.97;;;5.80;;
78916;SDS011;68315;48.608;11.436;2023-06-26T00:41:59;6.57;;;5.68;;
78916;SDS011;68315;48.608;11.436;2023-06-26T00:44:24;6.27;;;5.53;;
78916;SDS011;68315;48.608;11.436;2023-06-26T00:46:50;7.60;;;5.90;;
78916;SDS011;68315;48.608;11.436;2023-06-26T00:49:15;6.63;;;5.57;;
78916;SDS011;68315;48.608;11.436;2023-06-26T00:51:40;5.80;;;5.03;;
78916;SDS011;68315;48.608;11.436;2023-06-26T00:54:06;6.15;;;5.07;;
78916;SDS011;68315;48.608;11.436;2023-06-26T00:56:31;8.75;;;5.72;;
78916;SDS011;68315;48.608;11.436;2023-06-26T00:58:57;6.30;;;5.00;;
78916;SDS011;68315;48.608;11.436;2023-06-26T01:01:23;7.30;;;5.60;;
78916;SDS011;68315;48.608;11.436;2023-06-26T01:03:50;7.40;;;6.03;;
78916;SDS011;68315;48.608;11.436;2023-06-26T01:06:17;5.57;;;4.97;;
78916;SDS011;68315;48.608;11.436;2023-06-26T01:08:43;5.30;;;4.80;;
78916;SDS011;68315;48.608;11.436;2023-06-26T01:11:09;6.82;;;5.60;;
78916;SDS011;68315;48.608;11.436;2023-06-26T01:13:35;7.65;;;6.18;;
78916;SDS011;68315;48.608;11.436;2023-06-26T01:16:01;6.32;;;5.72;;
78916;SDS011;68315;48.608;11.436;2023-06-26T01:18:27;6.38;;;5.65;;
78916;SDS011;68315;48.608;11.436;2023-06-26T01:20:53;6.05;;;5.43;;
78916;SDS011;68315;48.608;11.436;2023-06-26T01:23:22;5.68;;;5.07;;
78916;SDS011;68315;48.608;11.436;2023-06-26T01:28:33;6.00;;;5.40;;
78916;SDS011;68315;48.608;11.436;2023-06-26T01:31:00;7.10;;;6.05;;
78916;SDS011;68315;48.608;11.436;2023-06-26T01:33:27;6.78;;;6.03;;
78916;SDS011;68315;48.608;11.436;2023-06-26T01:35:52;5.40;;;4.82;;
78916;SDS011;68315;48.608;11.436;2023-06-26T01:38:19;6.13;;;5.18;;
78916;SDS011;68315;48.608;11.436;2023-06-26T01:40:45;7.00;;;5.63;;
78916;SDS011;68315;48.608;11.436;2023-06-26T01:43:15;6.80;;;5.50;;
78916;SDS011;68315;48.608;11.436;2023-06-26T01:46:01;5.15;;;4.35;;
78916;SDS011;68315;48.608;11.436;2023-06-26T01:48:34;4.95;;;4.00;;
78916;SDS011;68315;48.608;11.436;2023-06-26T01:51:05;5.93;;;5.20;;
78916;SDS011;68315;48.608;11.436;2023-06-26T01:53:32;6.53;;;5.60;;
78916;SDS011;68315;48.608;11.436;2023-06-26T01:56:08;6.95;;;5.63;;
78916;SDS011;68315;48.608;11.436;2023-06-26T01:58:40;5.97;;;5.18;;
78916;SDS011;68315;48.608;11.436;2023-06-26T02:01:08;7.15;;;5.90;;
78916;SDS011;68315;48.608;11.436;2023-06-26T02:03:33;7.15;;;5.75;;
78916;SDS011;68315;48.608;11.436;2023-06-26T02:05:58;7.30;;;5.03;;
78916;SDS011;68315;48.608;11.436;2023-06-26T02:08:24;7.22;;;5.85;;
78916;SDS011;68315;48.608;11.436;2023-06-26T02:10:49;6.65;;;5.60;;
78916;SDS011;68315;48.608;11.436;2023-06-26T02:13:14;6.38;;;5.70;;
78916;SDS011;68315;48.608;11.436;2023-06-26T02:15:40;6.78;;;5.78;;
78916;SDS011;68315;48.608;11.436;2023-06-26T02:18:05;6.43;;;5.50;;
78916;SDS011;68315;48.608;11.436;2023-06-26T02:20:30;6.70;;;5.55;;
78916;SDS011;68315;48.608;11.436;2023-06-26T02:22:55;5.63;;;4.93;;
78916;SDS011;68315;48.608;11.436;2023-06-26T02:25:21;5.82;;;5.22;;
78916;SDS011;68315;48.608;11.436;2023-06-26T02:27:46;5.70;;;4.55;;
78916;SDS011;68315;48.608;11.436;2023-06-26T02:30:12;5.72;;;5.13;;
78916;SDS011;68315;48.608;11.436;2023-06-26T02:32:37;7.22;;;5.80;;
78916;SDS011;68315;48.608;11.436;2023-06-26T02:35:02;6.82;;;4.97;;
78916;SDS011;68315;48.608;11.436;2023-06-26T02:37:28;4.97;;;4.13;;
78916;SDS011;68315;48.608;11.436;2023-06-26T02:39:53;4.80;;;4.30;;
78916;SDS011;68315;48.608;11.436;2023-06-26T02:42:18;6.50;;;5.20;;
78916;SDS011;68315;48.608;11.436;2023-06-26T02:44:44;7.35;;;6.03;;
78916;SDS011;68315;48.608;11.436;2023-06-26T02:47:09;6.15;;;5.22;;
78916;SDS011;68315;48.608;11.436;2023-06-26T02:49:34;6.93;;;5.50;;
78916;SDS011;68315;48.608;11.436;2023-06-26T02:51:59;7.43;;;5.55;;
78916;SDS011;68315;48.608;11.436;2023-06-26T02:54:25;6.10;;;5.40;;
78916;SDS011;68315;48.608;11.436;2023-06-26T02:56:50;7.18;;;5.72;;
78916;SDS011;68315;48.608;11.436;2023-06-26T02:59:15;8.77;;;5.78;;
78916;SDS011;68315;48.608;11.436;2023-06-26T03:01:41;6.38;;;5.55;;
78916;SDS011;68315;48.608;11.436;2023-06-26T03:04:06;6.80;;;5.15;;
78916;SDS011;68315;48.608;11.436;2023-06-26T03:06:31;5.10;;;4.47;;
78916;SDS011;68315;48.608;11.436;2023-06-26T03:08:56;5.63;;;4.55;;
78916;SDS011;68315;48.608;11.436;2023-06-26T03:11:22;6.10;;;5.30;;
78916;SDS011;68315;48.608;11.436;2023-06-26T03:13:47;6.57;;;5.35;;
78916;SDS011;68315;48.608;11.436;2023-06-26T03:16:12;6.00;;;4.55;;
78916;SDS011;68315;48.608;11.436;2023-06-26T03:18:38;5.93;;;4.95;;
78916;SDS011;68315;48.608;11.436;2023-06-26T03:21:03;6.80;;;6.03;;
78916;SDS011;68315;48.608;11.436;2023-06-26T03:23:28;7.45;;;5.20;;
78916;SDS011;68315;48.608;11.436;2023-06-26T03:25:54;8.68;;;6.38;;
78916;SDS011;68315;48.608;11.436;2023-06-26T03:28:19;9.40;;;7.30;;
78916;SDS011;68315;48.608;11.436;2023-06-26T03:30:44;7.20;;;6.50;;
78916;SDS011;68315;48.608;11.436;2023-06-26T03:33:10;8.30;;;5.32;;
78916;SDS011;68315;48.608;11.436;2023-06-26T03:35:35;6.35;;;5.25;;
78916;SDS011;68315;48.608;11.436;2023-06-26T03:38:01;6.38;;;5.00;;
78916;SDS011;68315;48.608;11.436;2023-06-26T03:40:27;7.05;;;6.13;;
78916;SDS011;68315;48.608;11.436;2023-06-26T03:42:52;6.47;;;5.57;;
78916;SDS011;68315;48.608;11.436;2023-06-26T03:45:17;5.95;;;5.30;;
78916;SDS011;68315;48.608;11.436;2023-06-26T03:47:44;7.65;;;5.85;;
78916;SDS011;68315;48.608;11.436;2023-06-26T03:50:12;6.72;;;5.57;;
78916;SDS011;68315;48.608;11.436;2023-06-26T03:52:37;5.90;;;5.10;;
78916;SDS011;68315;48.608;11.436;2023-06-26T03:55:02;5.63;;;5.03;;
78916;SDS011;68315;48.608;11.436;2023-06-26T03:57:28;10.13;;;6.80;;
78916;SDS011;68315;48.608;11.436;2023-06-26T03:59:53;9.45;;;6.50;;
78916;SDS011;68315;48.608;11.436;2023-06-26T04:02:18;10.23;;;7.53;;
78916;SDS011;68315;48.608;11.436;2023-06-26T04:04:43;7.18;;;6.05;;
78916;SDS011;68315;48.608;11.436;2023-06-26T04:07:09;5.90;;;5.30;;
78916;SDS011;68315;48.608;11.436;2023-06-26T04:09:35;8.38;;;5.63;;
78916;SDS011;68315;48.608;11.436;2023-06-26T04:12:00;8.60;;;6.75;;
78916;SDS011;68315;48.608;11.436;2023-06-26T04:14:26;7.25;;;6.15;;
78916;SDS011;68315;48.608;11.436;2023-06-26T04:16:51;8.13;;;6.47;;
78916;SDS011;68315;48.608;11.436;2023-06-26T04:19:17;6.45;;;5.80;;
78916;SDS011;68315;48.608;11.436;2023-06-26T04:21:42;7.78;;;5.95;;
78916;SDS011;68315;48.608;11.436;2023-06-26T04:24:08;8.95;;;6.63;;
78916;SDS011;68315;48.608;11.436;2023-06-26T04:26:33;8.70;;;5.88;;
78916;SDS011;68315;48.608;11.436;2023-06-26T04:28:59;9.90;;;6.68;;
78916;SDS011;68315;48.608;11.436;2023-06-26T04:31:24;6.88;;;5.95;;
78916;SDS011;68315;48.608;11.436;2023-06-26T04:33:50;7.38;;;6.55;;
78916;SDS011;68315;48.608;11.436;2023-06-26T04:36:16;6.65;;;5.95;;
78916;SDS011;68315;48.608;11.436;2023-06-26T04:38:42;8.40;;;6.72;;
78916;SDS011;68315;48.608;11.436;2023-06-26T04:41:07;7.25;;;5.85;;
78916;SDS011;68315;48.608;11.436;2023-06-26T04:43:33;11.63;;;8.20;;
78916;SDS011;68315;48.608;11.436;2023-06-26T04:45:58;9.10;;;7.60;;
78916;SDS011;68315;48.608;11.436;2023-06-26T04:48:23;9.45;;;7.25;;
78916;SDS011;68315;48.608;11.436;2023-06-26T04:50:48;8.65;;;6.82;;
78916;SDS011;68315;48.608;11.436;2023-06-26T04:53:18;7.28;;;5.88;;
78916;SDS011;68315;48.608;11.436;2023-06-26T04:55:44;6.70;;;5.68;;
78916;SDS011;68315;48.608;11.436;2023-06-26T04:58:09;6.57;;;5.65;;
78916;SDS011;68315;48.608;11.436;2023-06-26T05:00:34;7.10;;;6.22;;
78916;SDS011;68315;48.608;11.436;2023-06-26T05:03:00;5.80;;;5.18;;
78916;SDS011;68315;48.608;11.436;2023-06-26T05:05:26;7.05;;;6.35;;
78916;SDS011;68315;48.608;11.436;2023-06-26T05:07:56;8.00;;;6.35;;
78916;SDS011;68315;48.608;11.436;2023-06-26T05:10:21;8.82;;;6.97;;
78916;SDS011;68315;48.608;11.436;2023-06-26T05:12:47;7.75;;;6.65;;
78916;SDS011;68315;48.608;11.436;2023-06-26T05:15:12;7.57;;;6.78;;
78916;SDS011;68315;48.608;11.436;2023-06-26T05:17:38;11.63;;;8.38;;
78916;SDS011;68315;48.608;11.436;2023-06-26T05:20:03;7.47;;;6.30;;
78916;SDS011;68315;48.608;11.436;2023-06-26T05:22:30;6.82;;;6.13;;
78916;SDS011;68315;48.608;11.436;2023-06-26T05:24:57;7.13;;;5.97;;
78916;SDS011;68315;48.608;11.436;2023-06-26T05:27:25;8.48;;;7.20;;
78916;SDS011;68315;48.608;11.436;2023-06-26T05:29:51;8.95;;;7.32;;
78916;SDS011;68315;48.608;11.436;2023-06-26T05:32:16;7.93;;;6.85;;
78916;SDS011;68315;48.608;11.436;2023-06-26T05:34:47;7.93;;;7.05;;
78916;SDS011;68315;48.608;11.436;2023-06-26T05:37:14;9.52;;;8.20;;
78916;SDS011;68315;48.608;11.436;2023-06-26T05:39:45;9.20;;;8.20;;
78916;SDS011;68315;48.608;11.436;2023-06-26T05:42:10;11.30;;;9.55;;
78916;SDS011;68315;48.608;11.436;2023-06-26T05:44:36;11.15;;;9.90;;
78916;SDS011;68315;48.608;11.436;2023-06-26T05:47:02;11.35;;;9.95;;
78916;SDS011;68315;48.608;11.436;2023-06-26T05:49:27;11.40;;;10.05;;
78916;SDS011;68315;48.608;11.436;2023-06-26T05:51:52;10.07;;;8.98;;
78916;SDS011;68315;48.608;11.436;2023-06-26T05:54:18;13.65;;;10.48;;
78916;SDS011;68315;48.608;11.436;2023-06-26T05:56:43;9.98;;;8.48;;
78916;SDS011;68315;48.608;11.436;2023-06-26T05:59:10;8.70;;;7.35;;
78916;SDS011;68315;48.608;11.436;2023-06-26T06:01:36;9.55;;;7.78;;
78916;SDS011;68315;48.608;11.436;2023-06-26T06:04:02;10.75;;;8.20;;
78916;SDS011;68315;48.608;11.436;2023-06-26T06:06:27;9.90;;;8.73;;
78916;SDS011;68315;48.608;11.436;2023-06-26T06:08:52;10.55;;;9.45;;
78916;SDS011;68315;48.608;11.436;2023-06-26T06:11:17;10.27;;;9.10;;
78916;SDS011;68315;48.608;11.436;2023-06-26T06:13:43;10.65;;;9.10;;
78916;SDS011;68315;48.608;11.436;2023-06-26T06:16:08;10.03;;;8.93;;
78916;SDS011;68315;48.608;11.436;2023-06-26T06:18:33;12.48;;;11.02;;
78916;SDS011;68315;48.608;11.436;2023-06-26T06:20:58;13.57;;;12.17;;
78916;SDS011;68315;48.608;11.436;2023-06-26T06:23:24;12.07;;;10.60;;
78916;SDS011;68315;48.608;11.436;2023-06-26T06:25:49;11.35;;;8.73;;
78916;SDS011;68315;48.608;11.436;2023-06-26T06:28:15;11.47;;;9.33;;
78916;SDS011;68315;48.608;11.436;2023-06-26T06:30:41;11.90;;;10.27;;
78916;SDS011;68315;48.608;11.436;2023-06-26T06:33:07;10.05;;;8.80;;
78916;SDS011;68315;48.608;11.436;2023-06-26T06:35:32;12.40;;;10.63;;
78916;SDS011;68315;48.608;11.436;2023-06-26T06:37:57;9.70;;;8.27;;
78916;SDS011;68315;48.608;11.436;2023-06-26T06:40:22;12.60;;;10.55;;
78916;SDS011;68315;48.608;11.436;2023-06-26T06:42:48;12.68;;;9.32;;
78916;SDS011;68315;48.608;11.436;2023-06-26T06:45:13;12.17;;;10.13;;
78916;SDS011;68315;48.608;11.436;2023-06-26T06:47:38;12.97;;;9.40;;
78916;SDS011;68315;48.608;11.436;2023-06-26T06:50:04;16.30;;;10.70;;
78916;SDS011;68315;48.608;11.436;2023-06-26T06:52:36;9.20;;;8.23;;
78916;SDS011;68315;48.608;11.436;2023-06-26T06:55:02;9.95;;;8.95;;
78916;SDS011;68315;48.608;11.436;2023-06-26T06:57:33;13.23;;;9.70;;
78916;SDS011;68315;48.608;11.436;2023-06-26T07:02:35;9.05;;;7.80;;
78916;SDS011;68315;48.608;11.436;2023-06-26T07:05:01;10.15;;;7.90;;
78916;SDS011;68315;48.608;11.436;2023-06-26T07:07:28;9.75;;;8.75;;
78916;SDS011;68315;48.608;11.436;2023-06-26T07:09:56;10.27;;;9.15;;
78916;SDS011;68315;48.608;11.436;2023-06-26T07:12:23;11.80;;;9.38;;
78916;SDS011;68315;48.608;11.436;2023-06-26T07:14:48;10.68;;;9.27;;
78916;SDS011;68315;48.608;11.436;2023-06-26T07:17:20;12.70;;;10.33;;
78916;SDS011;68315;48.608;11.436;2023-06-26T07:19:46;13.93;;;9.93;;
78916;SDS011;68315;48.608;11.436;2023-06-26T07:22:11;12.65;;;10.23;;
78916;SDS011;68315;48.608;11.436;2023-06-26T07:24:37;9.23;;;8.32;;
78916;SDS011;68315;48.608;11.436;2023-06-26T07:27:02;12.23;;;9.10;;
78916;SDS011;68315;48.608;11.436;2023-06-26T07:29:27;11.00;;;9.10;;
78916;SDS011;68315;48.608;11.436;2023-06-26T07:31:53;10.80;;;9.70;;
78916;SDS011;68315;48.608;11.436;2023-06-26T07:34:20;10.98;;;9.38;;
78916;SDS011;68315;48.608;11.436;2023-06-26T07:36:46;14.73;;;9.30;;
78916;SDS011;68315;48.608;11.436;2023-06-26T07:39:11;9.75;;;8.63;;
78916;SDS011;68315;48.608;11.436;2023-06-26T07:41:36;12.20;;;9.07;;
78916;SDS011;68315;48.608;11.436;2023-06-26T07:44:01;11.73;;;9.38;;
78916;SDS011;68315;48.608;11.436;2023-06-26T07:46:27;10.13;;;9.02;;
78916;SDS011;68315;48.608;11.436;2023-06-26T07:48:53;11.73;;;9.25;;
78916;SDS011;68315;48.608;11.436;2023-06-26T07:51:18;9.75;;;8.05;;
78916;SDS011;68315;48.608;11.436;2023-06-26T07:53:44;10.63;;;9.52;;
78916;SDS011;68315;48.608;11.436;2023-06-26T07:56:09;9.45;;;8.48;;
78916;SDS011;68315;48.608;11.436;2023-06-26T07:58:34;12.07;;;9.20;;
78916;SDS011;68315;48.608;11.436;2023-06-26T08:00:59;8.70;;;7.80;;
78916;SDS011;68315;48.608;11.436;2023-06-26T08:03:25;11.35;;;9.75;;
78916;SDS011;68315;48.608;11.436;2023-06-26T08:05:50;11.93;;;9.07;;
78916;SDS011;68315;48.608;11.436;2023-06-26T08:08:15;10.00;;;9.00;;
78916;SDS011;68315;48.608;11.436;2023-06-26T08:10:40;10.55;;;9.45;;
78916;SDS011;68315;48.608;11.436;2023-06-26T08:13:06;12.27;;;9.90;;
78916;SDS011;68315;48.608;11.436;2023-06-26T08:15:31;10.07;;;8.77;;
78916;SDS011;68315;48.608;11.436;2023-06-26T08:17:56;11.77;;;9.83;;
78916;SDS011;68315;48.608;11.436;2023-06-26T08:20:22;10.27;;;8.05;;
78916;SDS011;68315;48.608;11.436;2023-06-26T08:22:47;10.10;;;8.98;;
78916;SDS011;68315;48.608;11.436;2023-06-26T08:25:15;12.25;;;9.35;;
78916;SDS011;68315;48.608;11.436;2023-06-26T08:27:40;10.57;;;9.48;;
78916;SDS011;68315;48.608;11.436;2023-06-26T08:30:06;10.13;;;9.10;;
78916;SDS011;68315;48.608;11.436;2023-06-26T08:32:31;13.13;;;9.27;;
78916;SDS011;68315;48.608;11.436;2023-06-26T08:34:56;12.18;;;10.30;;
78916;SDS011;68315;48.608;11.436;2023-06-26T08:37:22;9.80;;;8.70;;
78916;SDS011;68315;48.608;11.436;2023-06-26T08:39:48;13.13;;;10.90;;
78916;SDS011;68315;48.608;11.436;2023-06-26T08:42:13;12.15;;;10.85;;
78916;SDS011;68315;48.608;11.436;2023-06-26T08:44:38;12.05;;;10.20;;
78916;SDS011;68315;48.608;11.436;2023-06-26T08:47:04;11.83;;;10.07;;
78916;SDS011;68315;48.608;11.436;2023-06-26T08:49:33;9.88;;;8.75;;
78916;SDS011;68315;48.608;11.436;2023-06-26T08:52:06;11.50;;;10.38;;
78916;SDS011;68315;48.608;11.436;2023-06-26T08:54:43;10.88;;;9.77;;
78916;SDS011;68315;48.608;11.436;2023-06-26T08:57:11;12.23;;;9.80;;
78916;SDS011;68315;48.608;11.436;2023-06-26T08:59:37;10.55;;;9.45;;
78916;SDS011;68315;48.608;11.436;2023-06-26T09:02:03;8.98;;;8.07;;
78916;SDS011;68315;48.608;11.436;2023-06-26T09:04:28;10.30;;;9.20;;
78916;SDS011;68315;48.608;11.436;2023-06-26T09:06:55;11.82;;;9.68;;
78916;SDS011;68315;48.608;11.436;2023-06-26T09:09:20;9.50;;;8.50;;
78916;SDS011;68315;48.608;11.436;2023-06-26T09:11:45;12.05;;;9.73;;
78916;SDS011;68315;48.608;11.436;2023-06-26T09:14:11;10.18;;;8.48;;
78916;SDS011;68315;48.608;11.436;2023-06-26T09:16:40;10.20;;;8.60;;
78916;SDS011;68315;48.608;11.436;2023-06-26T09:19:10;10.50;;;8.93;;
78916;SDS011;68315;48.608;11.436;2023-06-26T09:21:37;10.38;;;9.27;;
78916;SDS011;68315;48.608;11.436;2023-06-26T09:24:04;11.55;;;8.80;;
78916;SDS011;68315;48.608;11.436;2023-06-26T09:26:31;10.10;;;9.10;;
78916;SDS011;68315;48.608;11.436;2023-06-26T09:28:57;8.05;;;7.32;;
78916;SDS011;68315;48.608;11.436;2023-06-26T09:31:23;8.98;;;8.07;;
78916;SDS011;68315;48.608;11.436;2023-06-26T09:33:49;8.70;;;7.85;;
78916;SDS011;68315;48.608;11.436;2023-06-26T09:36:22;8.67;;;7.77;;
78916;SDS011;68315;48.608;11.436;2023-06-26T09:38:49;15.40;;;8.18;;
78916;SDS011;68315;48.608;11.436;2023-06-26T09:41:16;8.90;;;7.82;;
78916;SDS011;68315;48.608;11.436;2023-06-26T09:43:46;8.05;;;7.25;;
78916;SDS011;68315;48.608;11.436;2023-06-26T09:46:25;8.75;;;7.85;;
78916;SDS011;68315;48.608;11.436;2023-06-26T09:49:07;8.68;;;7.75;;
78916;SDS011;68315;48.608;11.436;2023-06-26T09:51:36;7.30;;;6.60;;
78916;SDS011;68315;48.608;11.436;2023-06-26T09:54:02;7.72;;;7.03;;
78916;SDS011;68315;48.608;11.436;2023-06-26T09:56:29;8.60;;;7.70;;
78916;SDS011;68315;48.608;11.436;2023-06-26T09:58:58;7.95;;;7.13;;
78916;SDS011;68315;48.608;11.436;2023-06-26T10:01:29;7.53;;;6.75;;
78916;SDS011;68315;48.608;11.436;2023-06-26T10:03:58;6.57;;;5.97;;
78916;SDS011;68315;48.608;11.436;2023-06-26T10:06:27;6.70;;;6.10;;
78916;SDS011;68315;48.608;11.436;2023-06-26T10:08:58;7.80;;;7.00;;
78916;SDS011;68315;48.608;11.436;2023-06-26T10:11:27;7.82;;;6.90;;
78916;SDS011;68315;48.608;11.436;2023-06-26T10:14:07;7.85;;;7.13;;
78916;SDS011;68315;48.608;11.436;2023-06-26T10:16:37;6.80;;;6.20;;
78916;SDS011;68315;48.608;11.436;2023-06-26T10:19:07;8.15;;;7.35;;
78916;SDS011;68315;48.608;11.436;2023-06-26T10:21:35;7.13;;;6.40;;
78916;SDS011;68315;48.608;11.436;2023-06-26T10:24:03;6.55;;;5.93;;
78916;SDS011;68315;48.608;11.436;2023-06-26T10:26:35;6.22;;;5.70;;
78916;SDS011;68315;48.608;11.436;2023-06-26T10:29:13;6.22;;;5.68;;
78916;SDS011;68315;48.608;11.436;2023-06-26T10:31:40;7.47;;;6.18;;
78916;SDS011;68315;48.608;11.436;2023-06-26T10:34:18;6.15;;;5.60;;
78916;SDS011;68315;48.608;11.436;2023-06-26T10:36:43;6.18;;;5.57;;
78916;SDS011;68315;48.608;11.436;2023-06-26T10:39:09;8.90;;;6.00;;
78916;SDS011;68315;48.608;11.436;2023-06-26T10:41:38;6.43;;;5.93;;
78916;SDS011;68315;48.608;11.436;2023-06-26T10:44:16;6.10;;;5.45;;
78916;SDS011;68315;48.608;11.436;2023-06-26T10:46:51;7.07;;;6.22;;
78916;SDS011;68315;48.608;11.436;2023-06-26T10:49:25;7.00;;;6.40;;
78916;SDS011;68315;48.608;11.436;2023-06-26T10:51:53;6.35;;;5.75;;
78916;SDS011;68315;48.608;11.436;2023-06-26T10:54:20;5.72;;;5.22;;
78916;SDS011;68315;48.608;11.436;2023-06-26T10:56:47;6.10;;;5.38;;
78916;SDS011;68315;48.608;11.436;2023-06-26T10:59:17;6.93;;;5.55;;
78916;SDS011;68315;48.608;11.436;2023-06-26T11:01:53;5.55;;;5.10;;
78916;SDS011;68315;48.608;11.436;2023-06-26T11:07:14;6.22;;;5.35;;
78916;SDS011;68315;48.608;11.436;2023-06-26T11:09:53;6.20;;;5.60;;
78916;SDS011;68315;48.608;11.436;2023-06-26T11:15:01;5.80;;;5.25;;
78916;SDS011;68315;48.608;11.436;2023-06-26T11:17:27;6.53;;;5.93;;
78916;SDS011;68315;48.608;11.436;2023-06-26T11:19:53;6.38;;;5.78;;
78916;SDS011;68315;48.608;11.436;2023-06-26T11:22:20;6.28;;;5.68;;
78916;SDS011;68315;48.608;11.436;2023-06-26T11:24:46;8.63;;;6.07;;
78916;SDS011;68315;48.608;11.436;2023-06-26T11:27:12;5.72;;;5.20;;
78916;SDS011;68315;48.608;11.436;2023-06-26T11:29:38;6.67;;;6.00;;
78916;SDS011;68315;48.608;11.436;2023-06-26T11:32:12;6.68;;;6.07;;
78916;SDS011;68315;48.608;11.436;2023-06-26T11:34:38;6.47;;;5.88;;
78916;SDS011;68315;48.608;11.436;2023-06-26T11:37:03;5.80;;;5.20;;
78916;SDS011;68315;48.608;11.436;2023-06-26T11:39:29;6.50;;;5.90;;
78916;SDS011;68315;48.608;11.436;2023-06-26T11:41:54;6.80;;;6.13;;
78916;SDS011;68315;48.608;11.436;2023-06-26T11:44:20;5.93;;;5.25;;
78916;SDS011;68315;48.608;11.436;2023-06-26T11:46:46;6.18;;;5.50;;
78916;SDS011;68315;48.608;11.436;2023-06-26T11:49:14;6.70;;;5.88;;
78916;SDS011;68315;48.608;11.436;2023-06-26T11:51:41;6.43;;;5.80;;
78916;SDS011;68315;48.608;11.436;2023-06-26T11:54:07;6.35;;;5.75;;
78916;SDS011;68315;48.608;11.436;2023-06-26T11:56:33;6.28;;;5.57;;
78916;SDS011;68315;48.608;11.436;2023-06-26T12:04:10;6.32;;;5.72;;
78916;SDS011;68315;48.608;11.436;2023-06-26T12:06:37;10.90;;;6.07;;
78916;SDS011;68315;48.608;11.436;2023-06-26T12:09:05;5.95;;;5.20;;
78916;SDS011;68315;48.608;11.436;2023-06-26T12:11:32;9.27;;;5.40;;
78916;SDS011;68315;48.608;11.436;2023-06-26T12:13:59;7.07;;;6.13;;
78916;SDS011;68315;48.608;11.436;2023-06-26T12:16:25;9.07;;;6.50;;
78916;SDS011;68315;48.608;11.436;2023-06-26T12:18:50;17.10;;;6.07;;
78916;SDS011;68315;48.608;11.436;2023-06-26T12:21:33;6.60;;;5.28;;
78916;SDS011;68315;48.608;11.436;2023-06-26T12:24:01;6.85;;;6.15;;
78916;SDS011;68315;48.608;11.436;2023-06-26T12:26:30;6.75;;;5.75;;
78916;SDS011;68315;48.608;11.436;2023-06-26T12:29:05;6.97;;;5.88;;
78916;SDS011;68315;48.608;11.436;2023-06-26T12:31:31;6.65;;;6.05;;
78916;SDS011;68315;48.608;11.436;2023-06-26T12:33:57;6.97;;;5.70;;
78916;SDS011;68315;48.608;11.436;2023-06-26T12:36:23;6.85;;;6.22;;
78916;SDS011;68315;48.608;11.436;2023-06-26T12:38:52;7.32;;;6.10;;
78916;SDS011;68315;48.608;11.436;2023-06-26T12:41:19;6.28;;;5.40;;
78916;SDS011;68315;48.608;11.436;2023-06-26T12:43:45;6.25;;;5.75;;
78916;SDS011;68315;48.608;11.436;2023-06-26T12:46:11;6.80;;;6.13;;
78916;SDS011;68315;48.608;11.436;2023-06-26T12:48:43;7.07;;;6.32;;
78916;SDS011;68315;48.608;11.436;2023-06-26T12:51:11;7.57;;;5.97;;
78916;SDS011;68315;48.608;11.436;2023-06-26T12:53:37;6.40;;;5.80;;
78916;SDS011;68315;48.608;11.436;2023-06-26T12:56:04;6.75;;;5.80;;
78916;SDS011;68315;48.608;11.436;2023-06-26T12:58:34;6.30;;;5.72;;
78916;SDS011;68315;48.608;11.436;2023-06-26T13:01:02;6.63;;;5.70;;
78916;SDS011;68315;48.608;11.436;2023-06-26T13:03:28;6.72;;;6.00;;
78916;SDS011;68315;48.608;11.436;2023-06-26T13:05:54;8.77;;;5.15;;
78916;SDS011;68315;48.608;11.436;2023-06-26T13:08:19;6.43;;;5.63;;
78916;SDS011;68315;48.608;11.436;2023-06-26T13:10:44;6.68;;;5.93;;
78916;SDS011;68315;48.608;11.436;2023-06-26T13:13:10;6.47;;;5.88;;
78916;SDS011;68315;48.608;11.436;2023-06-26T13:15:36;6.10;;;5.50;;
78916;SDS011;68315;48.608;11.436;2023-06-26T13:18:01;6.75;;;5.55;;
78916;SDS011;68315;48.608;11.436;2023-06-26T13:20:26;6.60;;;6.00;;
78916;SDS011;68315;48.608;11.436;2023-06-26T13:22:52;6.03;;;5.50;;
78916;SDS011;68315;48.608;11.436;2023-06-26T13:25:19;5.07;;;4.68;;
78916;SDS011;68315;48.608;11.436;2023-06-26T13:27:44;4.80;;;4.40;;
78916;SDS011;68315;48.608;11.436;2023-06-26T13:30:09;5.90;;;5.27;;
78916;SDS011;68315;48.608;11.436;2023-06-26T13:32:36;6.05;;;5.50;;
78916;SDS011;68315;48.608;11.436;2023-06-26T13:35:02;5.95;;;5.45;;
78916;SDS011;68315;48.608;11.436;2023-06-26T13:37:28;6.30;;;5.78;;
78916;SDS011;68315;48.608;11.436;2023-06-26T13:39:53;7.37;;;5.40;;
78916;SDS011;68315;48.608;11.436;2023-06-26T13:42:18;5.37;;;4.87;;
78916;SDS011;68315;48.608;11.436;2023-06-26T13:44:44;6.15;;;5.38;;
78916;SDS011;68315;48.608;11.436;2023-06-26T13:47:13;5.95;;;5.35;;
78916;SDS011;68315;48.608;11.436;2023-06-26T13:49:39;5.75;;;5.18;;
78916;SDS011;68315;48.608;11.436;2023-06-26T13:52:04;6.20;;;5.50;;
78916;SDS011;68315;48.608;11.436;2023-06-26T13:54:32;6.35;;;5.75;;
78916;SDS011;68315;48.608;11.436;2023-06-26T13:56:59;8.52;;;5.57;;
78916;SDS011;68315;48.608;11.436;2023-06-26T13:59:27;6.30;;;5.72;;
78916;SDS011;68315;48.608;11.436;2023-06-26T14:01:52;5.75;;;5.25;;
78916;SDS011;68315;48.608;11.436;2023-06-26T14:04:18;6.57;;;5.47;;
78916;SDS011;68315;48.608;11.436;2023-06-26T14:06:43;6.20;;;5.60;;
78916;SDS011;68315;48.608;11.436;2023-06-26T14:09:10;5.93;;;5.30;;
78916;SDS011;68315;48.608;11.436;2023-06-26T14:11:35;7.90;;;5.55;;
78916;SDS011;68315;48.608;11.436;2023-06-26T14:14:00;8.00;;;6.10;;
78916;SDS011;68315;48.608;11.436;2023-06-26T14:16:26;6.53;;;5.20;;
78916;SDS011;68315;48.608;11.436;2023-06-26T14:18:51;5.85;;;5.18;;
78916;SDS011;68315;48.608;11.436;2023-06-26T14:21:16;7.30;;;5.40;;
78916;SDS011;68315;48.608;11.436;2023-06-26T14:23:41;6.03;;;5.43;;
78916;SDS011;68315;48.608;11.436;2023-06-26T14:26:07;5.55;;;5.05;;
78916;SDS011;68315;48.608;11.436;2023-06-26T14:28:32;6.68;;;4.88;;
78916;SDS011;68315;48.608;11.436;2023-06-26T14:30:58;7.40;;;5.03;;
78916;SDS011;68315;48.608;11.436;2023-06-26T14:33:23;6.40;;;5.63;;
78916;SDS011;68315;48.608;11.436;2023-06-26T14:35:48;6.03;;;5.43;;
78916;SDS011;68315;48.608;11.436;2023-06-26T14:38:14;6.30;;;5.68;;
78916;SDS011;68315;48.608;11.436;2023-06-26T14:40:39;6.00;;;5.30;;
78916;SDS011;68315;48.608;11.436;2023-06-26T14:43:04;10.50;;;6.43;;